createdAt,value
2024-05-09T00:00:48.373Z,11.19
2024-05-09T00:03:36.940Z,11.14
2024-05-09T00:06:05.714Z,11.09
2024-05-09T00:08:34.845Z,11.07
2024-05-09T00:11:03.799Z,11.03
2024-05-09T00:13:32.306Z,10.98
2024-05-09T00:16:00.863Z,10.89
2024-05-09T00:18:29.600Z,10.81
2024-05-09T00:20:58.181Z,10.78
2024-05-09T00:23:26.436Z,10.74
2024-05-09T00:25:55.131Z,10.68
2024-05-09T00:28:23.367Z,10.67
2024-05-09T00:30:52.235Z,10.66
2024-05-09T00:33:20.863Z,10.67
2024-05-09T00:35:49.278Z,10.72
2024-05-09T00:38:17.470Z,10.79
2024-05-09T00:40:46.152Z,10.86
2024-05-09T00:43:15.667Z,10.93
2024-05-09T00:45:44.367Z,10.97
2024-05-09T00:48:17.506Z,10.97
2024-05-09T00:50:49.556Z,10.93
2024-05-09T00:53:19.213Z,10.87
2024-05-09T00:55:48.508Z,10.81
2024-05-09T00:58:20.292Z,10.76
2024-05-09T01:00:50.641Z,10.74
2024-05-09T01:03:19.984Z,10.73
2024-05-09T01:05:48.520Z,10.74
2024-05-09T01:08:16.837Z,10.76
2024-05-09T01:10:47.901Z,10.83
2024-05-09T01:13:17.089Z,10.85
2024-05-09T01:15:48.093Z,10.85
2024-05-09T01:18:16.793Z,10.85
2024-05-09T01:20:45.667Z,10.84
2024-05-09T01:23:16.011Z,10.87
2024-05-09T01:25:46.562Z,10.90
2024-05-09T01:28:16.446Z,10.90
2024-05-09T01:30:45.053Z,10.88
2024-05-09T01:33:14.657Z,10.82
2024-05-09T01:35:43.620Z,10.81
2024-05-09T01:38:13.635Z,10.80
2024-05-09T01:40:43.840Z,10.84
2024-05-09T01:43:12.559Z,10.80
2024-05-09T01:45:41.470Z,10.66
2024-05-09T01:48:11.086Z,10.50
2024-05-09T01:50:42.431Z,10.34
2024-05-09T01:53:13.840Z,10.12
2024-05-09T01:55:43.235Z,9.98
2024-05-09T01:58:11.804Z,9.89
2024-05-09T02:00:42.614Z,9.80
2024-05-09T02:03:16.315Z,9.70
2024-05-09T02:05:49.808Z,9.69
2024-05-09T02:08:20.014Z,9.72
2024-05-09T02:10:50.036Z,9.73
2024-05-09T02:13:18.839Z,9.67
2024-05-09T02:15:47.189Z,9.61
2024-05-09T02:18:15.607Z,9.54
2024-05-09T02:20:44.374Z,9.49
2024-05-09T02:23:13.892Z,9.44
2024-05-09T02:25:42.398Z,9.38
2024-05-09T02:28:10.544Z,9.28
2024-05-09T02:30:41.435Z,9.22
2024-05-09T02:33:12.861Z,9.12
2024-05-09T02:35:44.053Z,9.02
2024-05-09T02:38:13.686Z,8.97
2024-05-09T02:40:42.274Z,8.96
2024-05-09T02:43:12.914Z,8.96
2024-05-09T02:45:42.153Z,9.00
2024-05-09T02:48:13.064Z,9.03
2024-05-09T02:50:44.279Z,9.08
2024-05-09T02:53:14.269Z,9.12
2024-05-09T02:55:43.571Z,9.17
2024-05-09T02:58:12.212Z,9.22
2024-05-09T03:00:42.483Z,9.30
2024-05-09T03:03:14.384Z,9.32
2024-05-09T03:05:46.644Z,9.32
2024-05-09T03:08:15.435Z,9.32
2024-05-09T03:10:43.948Z,9.34
2024-05-09T03:13:15.447Z,9.38
2024-05-09T03:15:45.860Z,9.43
2024-05-09T03:18:15.472Z,9.46
2024-05-09T03:20:44.778Z,9.47
2024-05-09T03:23:13.424Z,9.44
2024-05-09T03:25:42.243Z,9.35
2024-05-09T03:28:11.486Z,9.29
2024-05-09T03:30:42.481Z,9.26
2024-05-09T03:33:20.145Z,9.24
2024-05-09T03:35:49.584Z,9.21
2024-05-09T03:38:18.499Z,9.21
2024-05-09T03:40:49.145Z,9.26
2024-05-09T03:43:19.074Z,9.31
2024-05-09T03:45:50.397Z,9.37
2024-05-09T03:48:19.236Z,9.47
2024-05-09T03:50:47.928Z,9.52
2024-05-09T03:53:16.529Z,9.55
2024-05-09T03:55:49.252Z,9.55
2024-05-09T03:58:19.158Z,9.53
2024-05-09T04:00:47.547Z,9.52
2024-05-09T04:03:16.842Z,9.51
2024-05-09T04:05:45.811Z,9.50
2024-05-09T04:08:15.420Z,9.49
2024-05-09T04:10:45.434Z,9.45
2024-05-09T04:13:14.009Z,9.46
2024-05-09T04:15:42.247Z,9.50
2024-05-09T04:18:11.047Z,9.66
2024-05-09T04:20:41.019Z,10.65
2024-05-09T04:23:14.814Z,12.12
2024-05-09T04:25:45.256Z,13.33
2024-05-09T04:28:14.732Z,14.43
2024-05-09T04:30:43.681Z,15.37
2024-05-09T04:33:13.822Z,15.93
2024-05-09T04:35:44.128Z,15.85
2024-05-09T04:38:14.279Z,15.11
2024-05-09T04:40:43.422Z,14.50
2024-05-09T04:43:17.366Z,14.32
2024-05-09T04:45:46.329Z,14.74
2024-05-09T04:48:15.039Z,15.54
2024-05-09T04:50:44.185Z,16.54
2024-05-09T04:53:16.534Z,17.58
2024-05-09T04:55:45.615Z,18.56
2024-05-09T04:58:14.050Z,19.32
2024-05-09T05:00:44.365Z,19.85
2024-05-09T05:03:15.469Z,20.28
2024-05-09T05:05:47.641Z,20.79
2024-05-09T05:08:18.059Z,21.26
2024-05-09T05:10:48.624Z,21.73
2024-05-09T05:13:23.063Z,22.26
2024-05-09T05:15:55.741Z,22.70
2024-05-09T05:18:25.990Z,23.16
2024-05-09T05:20:56.166Z,23.56
2024-05-09T05:23:25.255Z,23.88
2024-05-09T05:25:55.950Z,24.28
2024-05-09T05:28:24.657Z,24.62
2024-05-09T05:30:52.931Z,24.92
2024-05-09T05:33:22.980Z,25.26
2024-05-09T05:35:51.813Z,25.50
2024-05-09T05:38:23.771Z,25.63
2024-05-09T05:40:55.018Z,25.75
2024-05-09T05:43:23.438Z,25.76
2024-05-09T05:45:51.587Z,25.84
2024-05-09T05:48:20.175Z,25.88
2024-05-09T05:50:48.498Z,25.42
2024-05-09T05:53:16.750Z,25.35
2024-05-09T05:55:45.404Z,25.88
2024-05-09T05:58:15.197Z,26.38
2024-05-09T06:00:43.494Z,26.94
2024-05-09T06:03:13.787Z,27.42
2024-05-09T06:05:48.711Z,27.90
2024-05-09T06:08:17.440Z,28.20
2024-05-09T06:10:46.237Z,28.21
2024-05-09T06:13:15.829Z,28.31
2024-05-09T06:15:44.617Z,28.72
2024-05-09T06:18:14.285Z,29.03
2024-05-09T06:20:44.041Z,29.19
2024-05-09T06:23:14.373Z,29.23
2024-05-09T06:25:44.231Z,29.57
2024-05-09T06:28:12.606Z,29.98
2024-05-09T06:30:42.990Z,30.31
2024-05-09T06:33:14.372Z,30.71
2024-05-09T06:35:46.265Z,31.13
2024-05-09T06:38:14.995Z,31.19
2024-05-09T06:40:44.330Z,31.11
2024-05-09T06:43:18.772Z,31.17
2024-05-09T06:45:49.639Z,31.32
2024-05-09T06:48:19.762Z,31.47
2024-05-09T06:50:48.968Z,31.50
2024-05-09T06:53:20.585Z,31.61
2024-05-09T06:55:49.281Z,31.76
2024-05-09T06:58:18.013Z,31.60
2024-05-09T07:00:46.292Z,31.65
2024-05-09T07:03:18.192Z,31.68
2024-05-09T07:05:49.116Z,31.54
2024-05-09T07:08:18.709Z,31.65
2024-05-09T07:10:47.487Z,31.87
2024-05-09T07:13:16.234Z,31.79
2024-05-09T07:15:44.761Z,31.57
2024-05-09T07:18:17.655Z,31.58
2024-05-09T07:20:50.838Z,31.15
2024-05-09T07:23:19.630Z,30.30
2024-05-09T07:25:48.717Z,29.71
2024-05-09T07:28:19.421Z,29.64
2024-05-09T07:30:48.208Z,29.50
2024-05-09T07:33:22.390Z,29.48
2024-05-09T07:35:52.812Z,29.58
2024-05-09T07:38:21.822Z,29.95
2024-05-09T07:40:50.269Z,30.38
2024-05-09T07:43:18.776Z,30.66
2024-05-09T07:45:52.710Z,30.58
2024-05-09T07:52:39.041Z,30.69
2024-05-09T07:53:49.989Z,30.73
2024-05-09T07:56:23.080Z,30.35
2024-05-09T07:58:56.185Z,29.86
2024-05-09T08:01:26.659Z,29.35
2024-05-09T08:03:55.827Z,29.09
2024-05-09T08:06:25.658Z,28.88
2024-05-09T08:08:54.462Z,28.48
2024-05-09T08:11:24.050Z,28.45
2024-05-09T08:13:52.735Z,28.51
2024-05-09T08:16:21.182Z,28.34
2024-05-09T08:18:50.274Z,28.25
2024-05-09T08:21:19.533Z,28.36
2024-05-09T08:23:47.676Z,28.25
2024-05-09T08:26:15.873Z,28.08
2024-05-09T08:28:44.358Z,27.68
2024-05-09T08:31:12.816Z,27.13
2024-05-09T08:33:48.239Z,26.60
2024-05-09T08:36:16.914Z,26.27
2024-05-09T08:38:45.104Z,26.38
2024-05-09T08:41:22.049Z,26.46
2024-05-09T08:43:52.735Z,26.41
2024-05-09T08:46:27.313Z,26.29
2024-05-09T08:48:57.595Z,25.90
2024-05-09T08:51:26.397Z,25.19
2024-05-09T08:53:57.112Z,24.56
2024-05-09T08:56:28.467Z,24.10
2024-05-09T08:59:01.214Z,23.80
2024-05-09T09:01:32.054Z,23.34
2024-05-09T09:04:04.468Z,23.06
2024-05-09T09:06:34.792Z,22.92
2024-05-09T09:09:03.991Z,23.07
2024-05-09T09:11:32.299Z,23.38
2024-05-09T09:14:00.772Z,23.46
2024-05-09T09:16:33.851Z,23.69
2024-05-09T09:19:20.412Z,24.12
2024-05-09T09:21:53.320Z,24.32
2024-05-09T09:24:22.228Z,24.38
2024-05-09T09:26:51.258Z,24.40
2024-05-09T09:29:20.913Z,24.48
2024-05-09T09:31:58.924Z,24.54
2024-05-09T09:34:28.638Z,24.74
2024-05-09T09:36:58.862Z,24.87
2024-05-09T09:39:28.525Z,24.77
2024-05-09T09:42:00.029Z,24.49
2024-05-09T09:44:29.227Z,24.48
2024-05-09T09:47:00.697Z,24.56
2024-05-09T09:49:39.505Z,24.63
2024-05-09T09:52:11.020Z,24.31
2024-05-09T09:54:43.263Z,23.99
2024-05-09T09:57:11.978Z,23.78
2024-05-09T09:59:46.734Z,23.76
2024-05-09T10:02:15.155Z,23.85
2024-05-09T10:04:44.194Z,23.97
2024-05-09T10:07:14.740Z,24.09
2024-05-09T10:09:43.130Z,24.07
2024-05-09T10:12:15.321Z,23.87
2024-05-09T10:14:48.681Z,23.54
2024-05-09T10:17:17.902Z,23.12
2024-05-09T10:19:47.304Z,22.87
2024-05-09T10:22:27.912Z,22.74
2024-05-09T10:25:05.356Z,22.65
2024-05-09T10:27:34.164Z,22.44
2024-05-09T10:30:07.003Z,22.30
2024-05-09T10:32:41.160Z,22.22
2024-05-09T10:35:13.041Z,22.02
2024-05-09T10:37:41.887Z,21.91
2024-05-09T10:40:23.091Z,21.86
2024-05-09T10:42:59.565Z,21.95
2024-05-09T10:45:28.857Z,22.08
2024-05-09T10:47:57.590Z,22.02
2024-05-09T10:50:31.817Z,22.10
2024-05-09T10:53:02.718Z,22.02
2024-05-09T10:55:31.052Z,22.00
2024-05-09T10:57:59.357Z,22.06
2024-05-09T11:00:36.010Z,22.13
2024-05-09T11:03:05.805Z,22.04
2024-05-09T11:05:34.896Z,21.79
2024-05-09T11:08:03.637Z,21.53
2024-05-09T11:10:34.224Z,21.25
2024-05-09T11:13:03.309Z,21.18
2024-05-09T11:15:42.464Z,21.16
2024-05-09T11:18:25.479Z,21.11
2024-05-09T11:20:56.601Z,21.05
2024-05-09T11:23:27.571Z,21.02
2024-05-09T11:25:57.832Z,21.01
2024-05-09T11:28:28.817Z,21.08
2024-05-09T11:31:08.743Z,21.08
2024-05-09T11:33:45.686Z,20.99
2024-05-09T11:36:14.802Z,20.94
2024-05-09T11:38:43.634Z,21.01
2024-05-09T11:41:18.870Z,21.06
2024-05-09T11:43:47.460Z,21.07
2024-05-09T11:46:15.863Z,20.97
2024-05-09T11:48:44.775Z,20.86
2024-05-09T11:51:13.145Z,20.84
2024-05-09T11:53:41.340Z,20.67
2024-05-09T11:56:11.945Z,20.66
2024-05-09T11:58:41.674Z,20.63
2024-05-09T12:01:10.249Z,20.62
2024-05-09T12:03:38.702Z,20.62
2024-05-09T12:06:07.609Z,20.77
2024-05-09T12:08:35.915Z,20.94
2024-05-09T12:11:05.018Z,21.03
2024-05-09T12:13:33.980Z,21.05
2024-05-09T12:16:02.404Z,21.16
2024-05-09T12:18:31.694Z,21.37
2024-05-09T12:21:03.350Z,21.59
2024-05-09T12:23:31.577Z,21.55
2024-05-09T12:25:59.881Z,21.52
2024-05-09T12:28:28.218Z,21.67
2024-05-09T12:30:56.479Z,21.88
2024-05-09T12:33:25.410Z,21.87
2024-05-09T12:35:56.157Z,21.74
2024-05-09T12:38:24.479Z,21.60
2024-05-09T12:40:53.101Z,21.55
2024-05-09T12:43:21.806Z,21.72
2024-05-09T12:45:50.269Z,21.98
2024-05-09T12:48:19.337Z,22.08
2024-05-09T12:50:47.999Z,22.16
2024-05-09T12:53:16.687Z,22.28
2024-05-09T12:55:53.410Z,22.42
2024-05-09T12:58:25.367Z,22.50
2024-05-09T13:00:54.348Z,22.49
2024-05-09T13:03:24.048Z,22.36
2024-05-09T13:05:54.089Z,22.33
2024-05-09T13:08:22.479Z,22.26
2024-05-09T13:10:51.287Z,22.07
2024-05-09T13:13:19.809Z,21.97
2024-05-09T13:15:51.527Z,21.81
2024-05-09T13:18:20.350Z,21.57
2024-05-09T13:20:48.630Z,21.41
2024-05-09T13:23:17.185Z,21.31
2024-05-09T13:25:48.810Z,21.46
2024-05-09T13:28:17.380Z,21.61
2024-05-09T13:30:45.909Z,21.66
2024-05-09T13:33:14.757Z,21.54
2024-05-09T13:35:47.348Z,21.50
2024-05-09T13:38:20.628Z,21.38
2024-05-09T13:40:50.143Z,21.29
2024-05-09T13:43:20.862Z,21.39
2024-05-09T13:45:49.672Z,21.53
2024-05-09T13:48:18.301Z,21.53
2024-05-09T13:50:46.982Z,21.40
2024-05-09T13:53:15.325Z,21.29
2024-05-09T13:55:43.657Z,21.21
2024-05-09T13:58:12.003Z,21.31
2024-05-09T14:00:46.427Z,21.29
2024-05-09T14:03:20.284Z,21.27
2024-05-09T14:05:52.116Z,21.21
2024-05-09T14:08:22.644Z,21.15
2024-05-09T14:10:52.280Z,21.18
2024-05-09T14:13:33.028Z,21.19
2024-05-09T14:16:01.733Z,21.24
2024-05-09T14:18:30.257Z,21.41
2024-05-09T14:21:03.839Z,21.50
2024-05-09T14:23:34.337Z,21.47
2024-05-09T14:26:04.926Z,21.40
2024-05-09T14:28:33.237Z,21.24
2024-05-09T14:31:01.585Z,21.22
2024-05-09T14:33:30.889Z,21.19
2024-05-09T14:35:59.548Z,21.12
2024-05-09T14:38:27.934Z,20.99
2024-05-09T14:40:56.673Z,20.89
2024-05-09T14:43:25.707Z,20.77
2024-05-09T14:45:57.033Z,20.61
2024-05-09T14:48:26.020Z,20.48
2024-05-09T14:50:54.709Z,20.42
2024-05-09T14:53:24.249Z,20.40
2024-05-09T14:55:53.221Z,20.32
2024-05-09T14:58:21.902Z,20.33
2024-05-09T15:00:51.518Z,20.33
2024-05-09T15:03:21.686Z,20.35
2024-05-09T15:05:51.980Z,20.40
2024-05-09T15:08:23.264Z,20.50
2024-05-09T15:10:51.901Z,20.57
2024-05-09T15:13:25.402Z,20.55
2024-05-09T15:15:54.852Z,20.50
2024-05-09T15:18:23.451Z,20.44
2024-05-09T15:20:52.595Z,20.43
2024-05-09T15:23:20.937Z,20.35
2024-05-09T15:25:49.471Z,20.32
2024-05-09T15:28:18.610Z,20.30
2024-05-09T15:30:48.599Z,20.34
2024-05-09T15:33:17.752Z,20.24
2024-05-09T15:35:47.085Z,20.20
2024-05-09T15:38:16.446Z,20.10
2024-05-09T15:40:44.824Z,20.09
2024-05-09T15:43:14.347Z,20.11
2024-05-09T15:45:42.802Z,20.09
2024-05-09T15:48:11.625Z,20.07
2024-05-09T15:50:42.845Z,20.03
2024-05-09T15:53:14.829Z,20.03
2024-05-09T15:55:43.708Z,20.02
2024-05-09T15:58:13.032Z,19.96
2024-05-09T16:00:44.810Z,19.90
2024-05-09T16:03:15.559Z,19.91
2024-05-09T16:05:46.821Z,19.95
2024-05-09T16:08:16.630Z,19.93
2024-05-09T16:10:47.265Z,19.93
2024-05-09T16:13:17.451Z,19.91
2024-05-09T16:15:46.805Z,19.92
2024-05-09T16:18:15.425Z,19.95
2024-05-09T16:20:45.446Z,19.96
2024-05-09T16:23:15.692Z,19.93
2024-05-09T16:25:46.227Z,19.85
2024-05-09T16:28:15.181Z,19.78
2024-05-09T16:30:43.809Z,19.71
2024-05-09T16:33:12.429Z,19.66
2024-05-09T16:35:41.132Z,19.61
2024-05-09T16:38:09.906Z,19.50
2024-05-09T16:40:40.697Z,19.45
2024-05-09T16:43:13.190Z,19.44
2024-05-09T16:45:46.315Z,19.44
2024-05-09T16:48:15.135Z,19.42
2024-05-09T16:50:43.599Z,19.38
2024-05-09T16:53:13.703Z,19.33
2024-05-09T16:55:42.102Z,19.28
2024-05-09T16:58:12.628Z,19.23
2024-05-09T17:00:43.460Z,19.24
2024-05-09T17:03:20.540Z,19.25
2024-05-09T17:06:01.772Z,19.17
2024-05-09T17:08:49.912Z,19.03
2024-05-09T17:11:30.055Z,18.90
2024-05-09T17:14:16.381Z,18.83
2024-05-09T17:16:56.140Z,18.82
2024-05-09T17:19:41.560Z,18.82
2024-05-09T17:22:19.830Z,18.81
2024-05-09T17:25:00.211Z,18.80
2024-05-09T17:27:40.675Z,18.71
2024-05-09T17:30:32.370Z,18.59
2024-05-09T17:33:18.811Z,18.49
2024-05-09T17:36:05.860Z,18.41
2024-05-09T17:38:50.476Z,18.36
2024-05-09T17:41:29.015Z,18.35
2024-05-09T17:44:06.258Z,18.33
2024-05-09T17:46:36.925Z,18.28
2024-05-09T17:49:05.605Z,18.22
2024-05-09T17:51:35.720Z,18.15
2024-05-09T17:54:04.274Z,18.09
2024-05-09T17:56:32.630Z,18.08
2024-05-09T17:59:00.847Z,18.04
2024-05-09T18:01:29.927Z,17.98
2024-05-09T18:03:59.860Z,17.94
2024-05-09T18:06:28.715Z,17.83
2024-05-09T18:08:57.378Z,17.75
2024-05-09T18:11:26.082Z,17.68
2024-05-09T18:13:54.405Z,17.58
2024-05-09T18:16:22.723Z,17.51
2024-05-09T18:18:51.583Z,17.45
2024-05-09T18:21:19.968Z,17.36
2024-05-09T18:23:48.395Z,17.31
2024-05-09T18:26:19.754Z,17.30
2024-05-09T18:28:48.581Z,17.25
2024-05-09T18:31:17.331Z,17.19
2024-05-09T18:33:45.908Z,17.19
2024-05-09T18:36:14.396Z,17.16
2024-05-09T18:38:43.205Z,17.06
2024-05-09T18:41:11.495Z,16.97
2024-05-09T18:43:45.020Z,16.90
2024-05-09T18:46:17.095Z,16.85
2024-05-09T18:48:45.927Z,16.80
2024-05-09T18:51:14.776Z,16.72
2024-05-09T18:53:45.094Z,16.62
2024-05-09T18:56:15.823Z,16.52
2024-05-09T18:58:45.001Z,16.43
2024-05-09T19:01:13.451Z,16.35
2024-05-09T19:03:42.213Z,16.30
2024-05-09T19:06:11.037Z,16.25
2024-05-09T19:08:39.437Z,16.21
2024-05-09T19:11:11.232Z,16.19
2024-05-09T19:13:39.574Z,16.16
2024-05-09T19:16:08.520Z,16.12
2024-05-09T19:18:37.379Z,16.06
2024-05-09T19:21:06.066Z,16.02
2024-05-09T19:23:38.238Z,16.05
2024-05-09T19:26:09.972Z,16.06
2024-05-09T19:28:38.248Z,16.06
2024-05-09T19:31:06.837Z,16.01
2024-05-09T19:33:36.996Z,15.92
2024-05-09T19:36:06.604Z,15.84
2024-05-09T19:38:35.411Z,15.77
2024-05-09T19:41:06.308Z,15.71
2024-05-09T19:43:35.977Z,15.64
2024-05-09T19:46:05.068Z,15.59
2024-05-09T19:48:33.791Z,15.54
2024-05-09T19:51:05.469Z,15.50
2024-05-09T19:53:33.832Z,15.46
2024-05-09T19:56:02.207Z,15.42
2024-05-09T19:58:30.532Z,15.40
2024-05-09T20:00:59.472Z,15.40
2024-05-09T20:03:27.740Z,15.42
2024-05-09T20:05:58.463Z,15.45
2024-05-09T20:08:26.924Z,15.46
2024-05-09T20:10:56.241Z,15.47
2024-05-09T20:13:24.888Z,15.49
2024-05-09T20:15:53.539Z,15.50
2024-05-09T20:18:22.368Z,15.46
2024-05-09T20:20:53.395Z,15.41
2024-05-09T20:23:22.415Z,15.39
2024-05-09T20:25:50.997Z,15.39
2024-05-09T20:28:20.331Z,15.38
2024-05-09T20:30:48.817Z,15.38
2024-05-09T20:33:17.893Z,15.31
2024-05-09T20:35:46.480Z,15.26
2024-05-09T20:38:14.696Z,15.21
2024-05-09T20:40:43.946Z,15.18
2024-05-09T20:43:12.320Z,15.13
2024-05-09T20:45:41.052Z,15.11
2024-05-09T20:48:10.143Z,15.06
2024-05-09T20:50:41.432Z,14.99
2024-05-09T20:53:13.851Z,14.88
2024-05-09T20:55:44.821Z,14.85
2024-05-09T20:58:14.366Z,14.81
2024-05-09T21:00:45.488Z,14.75
2024-05-09T21:03:17.013Z,14.68
2024-05-09T21:05:47.961Z,14.67
2024-05-09T21:08:17.150Z,14.70
2024-05-09T21:10:45.689Z,14.70
2024-05-09T21:13:14.664Z,14.71
2024-05-09T21:15:43.583Z,14.68
2024-05-09T21:18:12.034Z,14.67
2024-05-09T21:20:40.377Z,14.61
2024-05-09T21:23:08.921Z,14.55
2024-05-09T21:25:37.295Z,14.50
2024-05-09T21:28:05.833Z,14.42
2024-05-09T21:30:41.353Z,14.33
2024-05-09T21:33:13.525Z,14.22
2024-05-09T21:35:44.332Z,14.15
2024-05-09T21:38:14.736Z,14.06
2024-05-09T21:40:43.964Z,13.98
2024-05-09T21:43:12.799Z,13.88
2024-05-09T21:45:41.334Z,13.80
2024-05-09T21:48:13.172Z,13.70
2024-05-09T21:50:42.659Z,13.62
2024-05-09T21:53:12.687Z,13.58
2024-05-09T21:55:42.674Z,13.54
2024-05-09T21:58:15.312Z,13.47
2024-05-09T22:00:45.765Z,13.43
2024-05-09T22:03:15.609Z,13.40
2024-05-09T22:05:45.418Z,13.35
2024-05-09T22:08:13.955Z,13.27
2024-05-09T22:10:42.462Z,13.22
2024-05-09T22:13:11.142Z,13.18
2024-05-09T22:15:40.473Z,13.16
2024-05-09T22:18:11.573Z,13.17
2024-05-09T22:20:49.638Z,13.17
2024-05-09T22:23:17.936Z,13.15
2024-05-09T22:25:46.305Z,13.11
2024-05-09T22:28:15.884Z,13.09
2024-05-09T22:30:47.123Z,13.06
2024-05-09T22:33:16.568Z,13.02
2024-05-09T22:35:45.411Z,13.00
2024-05-09T22:38:14.092Z,12.97
2024-05-09T22:40:48.134Z,12.94
2024-05-09T22:43:23.993Z,12.90
2024-05-09T22:45:56.576Z,12.86
2024-05-09T22:48:25.808Z,12.84
2024-05-09T22:50:54.944Z,12.84
2024-05-09T22:53:26.726Z,12.81
2024-05-09T22:55:55.427Z,12.76
2024-05-09T22:58:24.008Z,12.70
2024-05-09T23:00:52.852Z,12.62
2024-05-09T23:03:22.749Z,12.55
2024-05-09T23:05:53.978Z,12.49
2024-05-09T23:08:23.602Z,12.42
2024-05-09T23:10:52.140Z,12.41
2024-05-09T23:13:20.623Z,12.42
2024-05-09T23:15:49.382Z,12.45
2024-05-09T23:18:17.682Z,12.46
2024-05-09T23:20:45.991Z,12.45
2024-05-09T23:23:14.974Z,12.45
2024-05-09T23:25:44.004Z,12.45
2024-05-09T23:28:12.862Z,12.40
2024-05-09T23:30:42.251Z,12.38
2024-05-09T23:33:13.301Z,12.36
2024-05-09T23:35:46.257Z,12.32
2024-05-09T23:38:14.761Z,12.30
2024-05-09T23:40:43.819Z,12.27
2024-05-09T23:43:14.555Z,12.21
2024-05-09T23:45:43.707Z,12.17
2024-05-09T23:48:12.303Z,12.13
2024-05-09T23:50:41.495Z,12.11
2024-05-09T23:53:10.896Z,12.11
2024-05-09T23:55:40.039Z,12.09
2024-05-09T23:58:11.386Z,12.06
